createdAt,value
2018-10-06T00:00:20.764Z,8.50
2018-10-06T00:01:24.358Z,8.40
2018-10-06T00:02:27.992Z,8.50
2018-10-06T00:03:31.491Z,8.40
2018-10-06T00:04:35.161Z,8.40
2018-10-06T00:05:38.736Z,8.40
2018-10-06T00:06:42.222Z,8.40
2018-10-06T00:07:45.854Z,8.40
2018-10-06T00:08:49.392Z,8.40
2018-10-06T00:09:52.961Z,8.30
2018-10-06T00:10:56.458Z,8.30
2018-10-06T00:12:00.015Z,8.30
2018-10-06T00:13:03.598Z,8.30
2018-10-06T00:14:07.099Z,8.20
2018-10-06T00:15:11.063Z,8.20
2018-10-06T00:16:14.642Z,8.20
2018-10-06T00:17:18.588Z,8.20
2018-10-06T00:18:22.077Z,8.20
2018-10-06T00:19:25.611Z,8.20
2018-10-06T00:20:29.138Z,8.10
2018-10-06T00:21:32.779Z,8.10
2018-10-06T00:22:36.417Z,8.10
2018-10-06T00:23:39.949Z,8.10
2018-10-06T00:24:43.573Z,8.10
2018-10-06T00:25:47.163Z,8.10
2018-10-06T00:26:50.751Z,8.10
2018-10-06T00:27:54.236Z,8.10
2018-10-06T00:28:57.915Z,8.10
2018-10-06T00:30:01.489Z,8.00
2018-10-06T00:31:05.089Z,8.00
2018-10-06T00:32:08.699Z,8.00
2018-10-06T00:33:12.369Z,8.00
2018-10-06T00:34:15.974Z,8.00
2018-10-06T00:35:20.575Z,8.00
2018-10-06T00:36:24.193Z,8.00
2018-10-06T00:37:27.793Z,8.00
2018-10-06T00:38:31.370Z,8.00
2018-10-06T00:39:34.928Z,8.00
2018-10-06T00:40:38.458Z,8.00
2018-10-06T00:41:41.984Z,8.00
2018-10-06T00:42:45.691Z,8.00
2018-10-06T00:43:49.250Z,8.00
2018-10-06T00:44:52.810Z,8.00
2018-10-06T00:45:56.410Z,8.00
2018-10-06T00:46:59.985Z,8.00
2018-10-06T00:48:03.515Z,8.00
2018-10-06T00:49:07.033Z,7.90
2018-10-06T00:50:10.628Z,7.90
2018-10-06T00:51:14.321Z,7.90
2018-10-06T00:52:17.833Z,7.90
2018-10-06T00:53:21.416Z,7.90
2018-10-06T00:54:25.053Z,7.90
2018-10-06T00:55:28.737Z,7.90
2018-10-06T00:56:32.278Z,7.90
2018-10-06T00:57:35.845Z,7.90
2018-10-06T00:58:39.550Z,7.90
2018-10-06T00:59:43.101Z,7.90
2018-10-06T01:00:46.652Z,7.90
2018-10-06T01:01:50.412Z,7.90
2018-10-06T01:02:54.057Z,7.90
2018-10-06T01:03:57.726Z,8.00
2018-10-06T01:05:01.259Z,8.00
2018-10-06T01:06:04.896Z,8.20
2018-10-06T01:07:08.463Z,8.20
2018-10-06T01:08:12.047Z,8.20
2018-10-06T01:09:15.557Z,8.20
2018-10-06T01:10:19.141Z,8.30
2018-10-06T01:11:22.758Z,8.30
2018-10-06T01:12:27.325Z,8.40
2018-10-06T01:13:31.017Z,8.40
2018-10-06T01:14:34.675Z,8.40
2018-10-06T01:15:38.243Z,8.40
2018-10-06T01:16:41.778Z,8.30
2018-10-06T01:17:45.423Z,8.30
2018-10-06T01:18:48.954Z,8.30
2018-10-06T01:19:52.579Z,8.20
2018-10-06T01:20:56.084Z,8.10
2018-10-06T01:21:59.596Z,8.20
2018-10-06T01:23:03.110Z,8.10
2018-10-06T01:24:06.646Z,8.10
2018-10-06T01:25:10.186Z,8.30
2018-10-06T01:26:13.740Z,8.30
2018-10-06T01:27:17.394Z,8.30
2018-10-06T01:28:20.943Z,8.30
2018-10-06T01:29:24.489Z,8.30
2018-10-06T01:30:28.131Z,8.30
2018-10-06T01:31:31.723Z,8.40
2018-10-06T01:32:35.323Z,8.30
2018-10-06T01:33:38.888Z,8.30
2018-10-06T01:34:43.561Z,8.30
2018-10-06T01:35:47.278Z,8.30
2018-10-06T01:36:50.860Z,8.30
2018-10-06T01:37:54.385Z,8.20
2018-10-06T01:38:57.930Z,8.20
2018-10-06T01:40:01.469Z,8.20
2018-10-06T01:41:05.066Z,8.20
2018-10-06T01:42:08.763Z,8.10
2018-10-06T01:43:12.370Z,8.10
2018-10-06T01:44:15.947Z,8.20
2018-10-06T01:45:19.542Z,8.10
2018-10-06T01:46:23.095Z,8.10
2018-10-06T01:47:26.655Z,8.10
2018-10-06T01:48:30.280Z,8.00
2018-10-06T01:49:33.842Z,8.00
2018-10-06T01:50:37.515Z,7.90
2018-10-06T01:51:41.023Z,7.90
2018-10-06T01:52:44.550Z,7.90
2018-10-06T01:53:48.107Z,7.90
2018-10-06T01:54:51.637Z,7.80
2018-10-06T01:55:55.260Z,7.80
2018-10-06T01:56:58.845Z,7.80
2018-10-06T01:58:02.425Z,7.70
2018-10-06T01:59:06.031Z,7.70
2018-10-06T02:00:09.618Z,7.70
2018-10-06T02:01:13.222Z,7.70
2018-10-06T02:02:16.756Z,7.60
2018-10-06T02:03:20.513Z,7.60
2018-10-06T02:04:24.841Z,7.60
2018-10-06T02:05:28.464Z,7.60
2018-10-06T02:06:31.965Z,7.60
2018-10-06T02:07:35.631Z,7.60
2018-10-06T02:08:39.271Z,7.60
2018-10-06T02:09:43.096Z,7.60
2018-10-06T02:10:46.784Z,7.60
2018-10-06T02:11:50.539Z,7.60
2018-10-06T02:12:54.161Z,7.60
2018-10-06T02:13:57.722Z,7.50
2018-10-06T02:15:01.224Z,7.50
2018-10-06T02:16:04.778Z,7.50
2018-10-06T02:17:08.334Z,7.50
2018-10-06T02:18:12.065Z,7.60
2018-10-06T02:19:15.640Z,7.50
2018-10-06T02:20:19.225Z,7.60
2018-10-06T02:21:22.927Z,7.60
2018-10-06T02:22:26.476Z,7.60
2018-10-06T02:23:29.993Z,7.60
2018-10-06T02:24:33.546Z,7.60
2018-10-06T02:25:37.349Z,7.60
2018-10-06T02:26:41.161Z,7.60
2018-10-06T02:27:44.788Z,7.50
2018-10-06T02:28:48.313Z,7.50
2018-10-06T02:29:51.867Z,7.50
2018-10-06T02:30:55.428Z,7.50
2018-10-06T02:31:58.957Z,7.50
2018-10-06T02:33:02.510Z,7.50
2018-10-06T02:34:06.056Z,7.40
2018-10-06T02:35:10.473Z,7.40
2018-10-06T02:36:14.003Z,7.40
2018-10-06T02:37:17.534Z,7.40
2018-10-06T02:38:21.167Z,7.40
2018-10-06T02:39:24.695Z,7.30
2018-10-06T02:40:28.271Z,7.30
2018-10-06T02:41:31.804Z,7.30
2018-10-06T02:42:35.311Z,7.30
2018-10-06T02:43:38.877Z,7.20
2018-10-06T02:44:42.431Z,7.20
2018-10-06T02:45:46.283Z,7.20
2018-10-06T02:46:49.825Z,7.20
2018-10-06T02:47:53.354Z,7.20
2018-10-06T02:48:56.892Z,7.10
2018-10-06T02:50:00.430Z,7.10
2018-10-06T02:51:03.971Z,7.10
2018-10-06T02:52:07.498Z,7.10
2018-10-06T02:53:11.485Z,7.10
2018-10-06T02:54:15.022Z,7.10
2018-10-06T02:55:18.525Z,7.10
2018-10-06T02:56:22.275Z,7.10
2018-10-06T02:57:25.833Z,7.10
2018-10-06T02:58:29.645Z,7.00
2018-10-06T02:59:33.191Z,7.00
2018-10-06T03:00:36.790Z,7.00
2018-10-06T03:01:40.347Z,7.00
2018-10-06T03:02:43.878Z,7.00
2018-10-06T03:03:47.592Z,7.00
2018-10-06T03:04:51.082Z,7.00
2018-10-06T03:05:54.572Z,7.10
2018-10-06T03:06:58.123Z,7.00
2018-10-06T03:08:01.662Z,7.00
2018-10-06T03:09:07.203Z,7.00
2018-10-06T03:10:10.913Z,7.10
2018-10-06T03:11:14.597Z,7.10
2018-10-06T03:12:18.099Z,7.10
2018-10-06T03:13:21.707Z,7.10
2018-10-06T03:14:25.238Z,7.10
2018-10-06T03:15:28.758Z,7.10
2018-10-06T03:16:32.271Z,7.10
2018-10-06T03:17:35.790Z,7.10
2018-10-06T03:18:39.912Z,7.10
2018-10-06T03:19:43.649Z,7.00
2018-10-06T03:20:47.158Z,7.00
2018-10-06T03:21:50.687Z,7.00
2018-10-06T03:22:54.221Z,7.10
2018-10-06T03:23:57.779Z,7.10
2018-10-06T03:25:01.399Z,7.00
2018-10-06T03:26:05.011Z,7.00
2018-10-06T03:27:08.686Z,7.00
2018-10-06T03:28:12.369Z,7.00
2018-10-06T03:29:16.000Z,7.00
2018-10-06T03:30:19.563Z,7.00
2018-10-06T03:31:23.266Z,7.00
2018-10-06T03:32:27.020Z,7.00
2018-10-06T03:33:30.477Z,6.90
2018-10-06T03:34:33.965Z,6.90
2018-10-06T03:35:37.858Z,6.90
2018-10-06T03:36:41.387Z,6.90
2018-10-06T03:37:44.896Z,6.90
2018-10-06T03:38:48.419Z,6.90
2018-10-06T03:39:51.894Z,6.90
2018-10-06T03:40:55.501Z,6.90
2018-10-06T03:41:59.050Z,6.90
2018-10-06T03:43:02.545Z,7.00
2018-10-06T03:44:06.051Z,7.00
2018-10-06T03:45:09.661Z,7.00
2018-10-06T03:46:13.881Z,7.00
2018-10-06T03:47:17.413Z,7.00
2018-10-06T03:48:20.964Z,7.10
2018-10-06T03:49:24.745Z,7.00
2018-10-06T03:50:28.189Z,7.00
2018-10-06T03:51:31.677Z,6.90
2018-10-06T03:52:35.156Z,6.90
2018-10-06T03:53:38.714Z,6.90
2018-10-06T03:54:42.257Z,6.90
2018-10-06T03:55:45.917Z,6.80
2018-10-06T03:56:49.419Z,6.80
2018-10-06T03:57:53.794Z,6.80
2018-10-06T03:58:57.634Z,6.80
2018-10-06T04:00:01.219Z,6.80
2018-10-06T04:01:04.740Z,6.80
2018-10-06T04:02:08.283Z,6.80
2018-10-06T04:03:11.925Z,6.80
2018-10-06T04:04:15.383Z,6.80
2018-10-06T04:05:18.882Z,6.80
2018-10-06T04:06:22.382Z,6.80
2018-10-06T04:07:26.236Z,6.80
2018-10-06T04:08:29.797Z,6.70
2018-10-06T04:09:33.679Z,6.70
2018-10-06T04:10:37.923Z,6.80
2018-10-06T04:11:42.204Z,6.80
2018-10-06T04:12:45.935Z,6.80
2018-10-06T04:13:49.488Z,6.80
2018-10-06T04:14:53.051Z,6.80
2018-10-06T04:15:56.683Z,6.70
2018-10-06T04:17:00.317Z,6.70
2018-10-06T04:18:03.924Z,6.70
2018-10-06T04:19:07.484Z,6.70
2018-10-06T04:20:11.263Z,6.60
2018-10-06T04:21:14.875Z,6.70
2018-10-06T04:22:18.485Z,6.60
2018-10-06T04:23:22.081Z,6.60
2018-10-06T04:24:25.797Z,6.60
2018-10-06T04:25:29.414Z,6.60
2018-10-06T04:26:33.410Z,6.60
2018-10-06T04:27:37.178Z,6.60
2018-10-06T04:28:40.860Z,6.60
2018-10-06T04:29:44.527Z,6.60
2018-10-06T04:30:48.128Z,6.60
2018-10-06T04:31:51.768Z,6.60
2018-10-06T04:32:55.408Z,6.60
2018-10-06T04:33:59.089Z,6.60
2018-10-06T04:35:02.863Z,6.60
2018-10-06T04:36:06.594Z,6.60
2018-10-06T04:37:10.213Z,6.60
2018-10-06T04:38:13.700Z,6.60
2018-10-06T04:39:17.413Z,6.60
2018-10-06T04:40:22.026Z,6.60
2018-10-06T04:41:27.666Z,6.60
2018-10-06T04:42:31.330Z,6.70
2018-10-06T04:43:34.837Z,6.60
2018-10-06T04:44:38.373Z,6.60
2018-10-06T04:45:41.834Z,6.60
2018-10-06T04:46:45.312Z,6.70
2018-10-06T04:47:49.025Z,6.70
2018-10-06T04:48:52.535Z,6.70
2018-10-06T04:49:56.024Z,6.60
2018-10-06T04:50:59.536Z,6.60
2018-10-06T04:52:03.061Z,6.60
2018-10-06T04:53:06.770Z,6.50
2018-10-06T04:54:10.278Z,6.50
2018-10-06T04:55:13.810Z,6.50
2018-10-06T04:56:17.317Z,6.50
2018-10-06T04:57:20.814Z,6.50
2018-10-06T04:58:24.350Z,6.50
2018-10-06T04:59:27.942Z,6.50
2018-10-06T05:00:31.413Z,6.50
2018-10-06T05:01:35.071Z,6.50
2018-10-06T05:02:38.887Z,6.50
2018-10-06T05:03:42.824Z,6.50
2018-10-06T05:04:46.700Z,6.50
2018-10-06T05:05:50.546Z,6.60
2018-10-06T05:06:54.043Z,6.60
2018-10-06T05:07:57.584Z,6.60
2018-10-06T05:09:01.282Z,6.60
2018-10-06T05:10:05.045Z,6.60
2018-10-06T05:11:08.527Z,6.60
2018-10-06T05:12:12.423Z,6.60
2018-10-06T05:13:15.993Z,6.70
2018-10-06T05:14:19.558Z,6.70
2018-10-06T05:15:23.150Z,6.70
2018-10-06T05:16:26.745Z,6.70
2018-10-06T05:17:30.234Z,6.80
2018-10-06T05:18:34.267Z,6.80
2018-10-06T05:19:37.807Z,6.80
2018-10-06T05:20:41.313Z,6.80
2018-10-06T05:21:44.816Z,6.90
2018-10-06T05:22:48.347Z,6.90
2018-10-06T05:23:52.318Z,6.90
2018-10-06T05:24:55.778Z,6.90
2018-10-06T05:25:59.330Z,6.90
2018-10-06T05:27:02.894Z,7.00
2018-10-06T05:28:06.544Z,7.00
2018-10-06T05:29:10.200Z,7.00
2018-10-06T05:30:14.486Z,7.00
2018-10-06T05:31:17.953Z,7.10
2018-10-06T05:32:21.467Z,7.10
2018-10-06T05:33:25.843Z,7.10
2018-10-06T05:34:29.380Z,7.10
2018-10-06T05:35:32.947Z,7.10
2018-10-06T05:36:36.593Z,7.10
2018-10-06T05:37:40.223Z,7.10
2018-10-06T05:38:43.805Z,7.00
2018-10-06T05:39:47.709Z,7.00
2018-10-06T05:40:51.293Z,6.90
2018-10-06T05:41:54.820Z,6.90
2018-10-06T05:42:58.421Z,6.90
2018-10-06T05:44:02.081Z,6.90
2018-10-06T05:45:06.187Z,6.90
2018-10-06T05:46:10.189Z,6.90
2018-10-06T05:47:14.236Z,6.90
2018-10-06T05:48:17.883Z,6.80
2018-10-06T05:49:21.574Z,6.80
2018-10-06T05:50:25.218Z,6.80
2018-10-06T05:51:29.827Z,6.80
2018-10-06T05:52:33.542Z,6.90
2018-10-06T05:53:37.312Z,6.90
2018-10-06T05:54:40.949Z,6.90
2018-10-06T05:55:44.619Z,6.90
2018-10-06T05:56:48.314Z,7.00
2018-10-06T05:57:52.019Z,7.00
2018-10-06T05:58:55.761Z,7.10
2018-10-06T05:59:59.691Z,7.10
2018-10-06T06:01:03.880Z,7.10
2018-10-06T06:02:09.953Z,7.20
2018-10-06T06:03:14.179Z,7.20
2018-10-06T06:04:17.781Z,7.20
2018-10-06T06:05:21.415Z,7.20
2018-10-06T06:06:25.076Z,7.30
2018-10-06T06:07:28.933Z,7.30
2018-10-06T06:08:32.714Z,7.40
2018-10-06T06:09:36.625Z,7.40
2018-10-06T06:10:40.251Z,7.40
2018-10-06T06:11:43.891Z,7.50
2018-10-06T06:12:47.639Z,7.50
2018-10-06T06:13:52.189Z,7.50
2018-10-06T06:14:56.640Z,7.70
2018-10-06T06:16:00.271Z,7.70
2018-10-06T06:17:04.091Z,7.80
2018-10-06T06:18:07.818Z,7.80
2018-10-06T06:19:11.870Z,7.80
2018-10-06T06:20:16.170Z,7.90
2018-10-06T06:21:19.960Z,7.90
2018-10-06T06:22:24.228Z,8.00
2018-10-06T06:23:27.955Z,8.00
2018-10-06T06:24:31.691Z,8.10
2018-10-06T06:25:35.387Z,8.10
2018-10-06T06:26:40.126Z,8.10
2018-10-06T06:27:43.873Z,8.20
2018-10-06T06:28:47.442Z,8.30
2018-10-06T06:29:51.745Z,8.40
2018-10-06T06:30:55.692Z,8.40
2018-10-06T06:31:59.398Z,8.50
2018-10-06T06:33:03.171Z,8.50
2018-10-06T06:34:06.841Z,8.60
2018-10-06T06:35:10.872Z,8.70
2018-10-06T06:36:14.585Z,8.70
2018-10-06T06:37:19.368Z,8.80
2018-10-06T06:38:23.049Z,8.80
2018-10-06T06:39:26.766Z,9.00
2018-10-06T06:40:30.522Z,9.00
2018-10-06T06:41:34.881Z,9.10
2018-10-06T06:42:39.320Z,9.20
2018-10-06T06:43:43.912Z,9.20
2018-10-06T06:44:48.253Z,9.30
2018-10-06T06:45:52.513Z,9.50
2018-10-06T06:46:56.797Z,9.70
2018-10-06T06:48:01.045Z,10.00
2018-10-06T06:49:05.460Z,10.30
2018-10-06T06:50:09.733Z,10.60
2018-10-06T06:51:14.141Z,10.90
2018-10-06T06:52:18.093Z,11.20
2018-10-06T06:53:21.695Z,11.50
2018-10-06T06:54:25.348Z,11.70
2018-10-06T06:55:29.048Z,12.00
2018-10-06T06:56:32.784Z,12.10
2018-10-06T06:57:36.535Z,12.40
2018-10-06T06:58:41.014Z,12.60
2018-10-06T06:59:44.738Z,12.80
2018-10-06T07:00:48.866Z,13.00
2018-10-06T07:01:52.891Z,13.30
2018-10-06T07:02:56.913Z,13.50
2018-10-06T07:04:22.926Z,13.70
2018-10-06T07:05:48.885Z,14.00
2018-10-06T07:07:12.254Z,14.30
2018-10-06T07:08:38.107Z,14.40
2018-10-06T07:09:42.818Z,14.70
2018-10-06T07:10:46.704Z,15.00
2018-10-06T07:11:50.551Z,15.30
2018-10-06T07:12:54.497Z,15.50
2018-10-06T07:13:58.289Z,15.80
2018-10-06T07:15:02.121Z,16.00
2018-10-06T07:16:05.901Z,16.30
2018-10-06T07:17:09.749Z,16.40
2018-10-06T07:18:13.631Z,16.60
2018-10-06T07:19:17.433Z,16.80
2018-10-06T07:20:21.120Z,17.10
2018-10-06T07:21:26.013Z,17.40
2018-10-06T07:22:29.761Z,17.50
2018-10-06T07:23:33.470Z,17.60
2018-10-06T07:24:37.315Z,17.80
2018-10-06T07:25:41.100Z,18.00
2018-10-06T07:26:44.756Z,18.10
2018-10-06T07:27:48.606Z,18.20
2018-10-06T07:28:52.357Z,18.40
2018-10-06T07:29:56.054Z,18.20
2018-10-06T07:30:59.720Z,18.30
2018-10-06T07:32:03.385Z,18.20
2018-10-06T07:33:07.013Z,18.40
2018-10-06T07:34:10.762Z,18.50
2018-10-06T07:35:14.533Z,18.50
2018-10-06T07:36:18.675Z,18.70
2018-10-06T07:37:23.571Z,18.90
2018-10-06T07:38:28.096Z,19.00
2018-10-06T07:39:32.720Z,19.10
2018-10-06T07:40:38.576Z,19.20
2018-10-06T07:41:42.981Z,19.30
2018-10-06T07:42:46.985Z,19.50
2018-10-06T07:43:51.337Z,19.50
2018-10-06T07:44:55.808Z,19.50
2018-10-06T07:45:59.914Z,19.70
2018-10-06T07:47:04.332Z,19.80
2018-10-06T07:48:08.595Z,19.90
2018-10-06T07:49:13.175Z,20.10
2018-10-06T07:50:16.836Z,20.30
2018-10-06T07:51:20.410Z,20.60
2018-10-06T07:52:23.986Z,20.70
2018-10-06T07:53:27.614Z,20.90
2018-10-06T07:54:31.204Z,20.80
2018-10-06T07:55:34.846Z,21.10
2018-10-06T07:56:40.032Z,21.10
2018-10-06T07:57:43.594Z,21.30
2018-10-06T07:58:47.248Z,21.40
2018-10-06T07:59:50.810Z,21.50
2018-10-06T08:00:54.382Z,21.60
2018-10-06T08:01:57.986Z,21.80
2018-10-06T08:03:01.563Z,22.10
2018-10-06T08:04:05.297Z,22.20
2018-10-06T08:05:08.874Z,22.30
2018-10-06T08:06:12.638Z,22.40
2018-10-06T08:07:16.211Z,22.60
2018-10-06T08:08:19.773Z,22.70
2018-10-06T08:09:23.417Z,22.90
2018-10-06T08:10:26.966Z,22.90
2018-10-06T08:11:30.625Z,23.00
2018-10-06T08:12:34.221Z,23.00
2018-10-06T08:13:37.823Z,23.10
2018-10-06T08:14:41.419Z,23.20
2018-10-06T08:15:44.971Z,23.20
2018-10-06T08:16:48.568Z,23.30
2018-10-06T08:17:52.100Z,23.30
2018-10-06T08:18:55.646Z,23.20
2018-10-06T08:19:59.525Z,23.40
2018-10-06T08:21:03.031Z,23.40
2018-10-06T08:22:06.552Z,23.50
2018-10-06T08:23:10.132Z,23.50
2018-10-06T08:24:13.819Z,23.60
2018-10-06T08:25:17.341Z,23.70
2018-10-06T08:26:21.272Z,23.80
2018-10-06T08:27:24.841Z,23.80
2018-10-06T08:28:28.428Z,23.90
2018-10-06T08:29:32.291Z,24.00
2018-10-06T08:30:35.799Z,24.00
2018-10-06T08:31:39.548Z,24.10
2018-10-06T08:32:43.186Z,24.10
2018-10-06T08:33:46.829Z,24.20
2018-10-06T08:34:50.458Z,24.20
2018-10-06T08:35:54.496Z,24.20
2018-10-06T08:36:58.062Z,24.20
2018-10-06T08:38:01.578Z,24.30
2018-10-06T08:39:07.098Z,24.30
2018-10-06T08:40:10.867Z,24.20
2018-10-06T08:41:14.583Z,24.20
2018-10-06T08:42:18.131Z,24.30
2018-10-06T08:43:21.952Z,24.20
2018-10-06T08:44:25.533Z,24.20
2018-10-06T08:45:29.379Z,24.30
2018-10-06T08:46:32.982Z,24.20
2018-10-06T08:47:36.603Z,24.30
2018-10-06T08:48:40.388Z,24.30
2018-10-06T08:49:43.984Z,24.30
2018-10-06T08:50:47.589Z,24.40
2018-10-06T08:51:51.260Z,24.30
2018-10-06T08:52:54.946Z,24.30
2018-10-06T08:53:58.591Z,24.10
2018-10-06T08:55:02.229Z,24.00
2018-10-06T08:56:05.951Z,24.20
2018-10-06T08:57:09.412Z,24.30
2018-10-06T08:58:13.584Z,24.30
2018-10-06T08:59:17.098Z,24.30
2018-10-06T09:00:20.682Z,24.40
2018-10-06T09:01:24.817Z,24.40
2018-10-06T09:02:28.358Z,24.50
2018-10-06T09:03:32.047Z,24.70
2018-10-06T09:04:35.590Z,24.70
2018-10-06T09:05:39.201Z,24.70
2018-10-06T09:06:42.836Z,24.70
2018-10-06T09:07:46.386Z,24.60
2018-10-06T09:08:50.011Z,24.50
2018-10-06T09:09:53.582Z,24.50
2018-10-06T09:10:57.328Z,24.50
2018-10-06T09:12:00.819Z,24.30
2018-10-06T09:13:04.432Z,24.30
2018-10-06T09:14:07.988Z,24.20
2018-10-06T09:15:11.728Z,24.10
2018-10-06T09:16:15.399Z,24.00
2018-10-06T09:17:18.998Z,23.80
2018-10-06T09:18:22.618Z,23.90
2018-10-06T09:19:26.215Z,23.90
2018-10-06T09:20:29.803Z,23.90
2018-10-06T09:21:33.569Z,23.90
2018-10-06T09:22:37.177Z,23.90
2018-10-06T09:23:41.520Z,23.80
2018-10-06T09:24:45.094Z,23.80
2018-10-06T09:25:48.717Z,23.80
2018-10-06T09:26:52.374Z,23.70
2018-10-06T09:27:55.946Z,23.60
2018-10-06T09:28:59.552Z,23.60
2018-10-06T09:30:03.155Z,23.60
2018-10-06T09:31:07.177Z,23.60
2018-10-06T09:32:11.672Z,23.50
2018-10-06T09:33:15.278Z,23.50
2018-10-06T09:34:19.210Z,23.30
2018-10-06T09:35:22.803Z,23.20
2018-10-06T09:36:27.082Z,23.20
2018-10-06T09:37:30.688Z,23.10
2018-10-06T09:38:34.260Z,23.10
2018-10-06T09:39:38.123Z,23.10
2018-10-06T09:40:42.218Z,23.00
2018-10-06T09:41:45.887Z,22.90
2018-10-06T09:42:50.315Z,22.70
2018-10-06T09:43:54.304Z,22.70
2018-10-06T09:44:57.881Z,22.70
2018-10-06T09:46:01.869Z,22.70
2018-10-06T09:47:05.498Z,22.80
2018-10-06T09:48:09.291Z,22.90
2018-10-06T09:49:13.152Z,22.90
2018-10-06T09:50:17.399Z,22.90
2018-10-06T09:51:20.965Z,23.00
2018-10-06T09:52:24.553Z,23.00
2018-10-06T09:53:28.189Z,23.00
2018-10-06T09:54:31.914Z,22.90
2018-10-06T09:55:36.021Z,22.80
2018-10-06T09:56:41.129Z,22.80
2018-10-06T09:57:44.998Z,22.80
2018-10-06T09:58:48.710Z,22.70
2018-10-06T09:59:52.568Z,22.60
2018-10-06T10:01:01.353Z,22.60
2018-10-06T10:02:14.386Z,22.50
2018-10-06T10:03:23.643Z,22.40
2018-10-06T10:04:27.174Z,22.40
2018-10-06T10:05:36.169Z,22.40
2018-10-06T10:06:41.130Z,22.40
2018-10-06T10:07:45.538Z,22.50
2018-10-06T10:08:49.377Z,22.60
2018-10-06T10:09:53.416Z,22.60
2018-10-06T10:10:58.064Z,22.60
2018-10-06T10:12:02.366Z,22.60
2018-10-06T10:13:06.062Z,22.70
2018-10-06T10:14:10.657Z,22.70
2018-10-06T10:15:14.440Z,22.80
2018-10-06T10:16:18.214Z,22.70
2018-10-06T10:17:21.885Z,22.70
2018-10-06T10:18:25.685Z,22.80
2018-10-06T10:19:29.737Z,22.70
2018-10-06T10:20:33.542Z,22.70
2018-10-06T10:21:37.131Z,22.70
2018-10-06T10:22:41.344Z,22.70
2018-10-06T10:23:44.849Z,22.80
2018-10-06T10:24:48.509Z,22.80
2018-10-06T10:25:52.054Z,22.80
2018-10-06T10:26:55.872Z,22.70
2018-10-06T10:27:59.455Z,22.70
2018-10-06T10:29:03.327Z,22.60
2018-10-06T10:30:07.736Z,22.60
2018-10-06T10:31:11.461Z,22.60
2018-10-06T10:32:15.243Z,22.60
2018-10-06T10:33:18.954Z,22.60
2018-10-06T10:34:22.933Z,22.70
2018-10-06T10:35:26.676Z,22.70
2018-10-06T10:36:30.504Z,22.70
2018-10-06T10:37:34.839Z,22.70
2018-10-06T10:38:38.544Z,22.70
2018-10-06T10:39:42.511Z,22.70
2018-10-06T10:40:46.024Z,22.80
2018-10-06T10:41:49.585Z,22.80
2018-10-06T10:42:53.226Z,22.90
2018-10-06T10:43:57.267Z,22.90
2018-10-06T10:45:00.894Z,22.80
2018-10-06T10:46:04.582Z,22.90
2018-10-06T10:47:09.287Z,22.90
2018-10-06T10:48:13.517Z,22.90
2018-10-06T10:49:17.156Z,22.90
2018-10-06T10:50:20.817Z,22.90
2018-10-06T10:51:24.575Z,22.90
2018-10-06T10:52:28.478Z,22.90
2018-10-06T10:53:32.224Z,23.00
2018-10-06T10:54:36.391Z,23.00
2018-10-06T10:55:40.025Z,23.00
2018-10-06T10:56:43.632Z,23.10
2018-10-06T10:57:47.404Z,23.10
2018-10-06T10:58:50.963Z,23.00
2018-10-06T10:59:54.777Z,22.90
2018-10-06T11:00:58.239Z,23.00
2018-10-06T11:02:01.917Z,23.00
2018-10-06T11:03:05.733Z,23.00
2018-10-06T11:04:09.991Z,23.00
2018-10-06T11:05:13.619Z,23.00
2018-10-06T11:06:17.249Z,23.10
2018-10-06T11:07:20.882Z,23.00
2018-10-06T11:08:24.489Z,23.00
2018-10-06T11:09:28.145Z,23.00
2018-10-06T11:10:31.619Z,23.00
2018-10-06T11:11:35.594Z,23.00
2018-10-06T11:12:39.334Z,23.00
2018-10-06T11:13:43.065Z,23.00
2018-10-06T11:14:46.683Z,23.10
2018-10-06T11:15:50.252Z,23.10
2018-10-06T11:16:54.915Z,23.10
2018-10-06T11:17:58.650Z,23.10
2018-10-06T11:19:02.763Z,23.20
2018-10-06T11:20:06.683Z,23.30
2018-10-06T11:21:10.309Z,23.40
2018-10-06T11:22:14.019Z,23.40
2018-10-06T11:23:17.534Z,23.50
2018-10-06T11:24:21.958Z,23.50
2018-10-06T11:25:25.920Z,23.60
2018-10-06T11:26:31.597Z,23.50
2018-10-06T11:27:35.407Z,23.50
2018-10-06T11:28:39.063Z,23.50
2018-10-06T11:29:42.717Z,23.60
2018-10-06T11:30:46.576Z,23.60
2018-10-06T11:31:50.188Z,23.60
2018-10-06T11:32:53.824Z,23.70
2018-10-06T11:33:57.540Z,23.70
2018-10-06T11:35:01.244Z,23.70
2018-10-06T11:36:04.870Z,23.70
2018-10-06T11:37:09.249Z,23.80
2018-10-06T11:38:13.085Z,23.80
2018-10-06T11:39:16.703Z,23.90
2018-10-06T11:40:20.341Z,24.00
2018-10-06T11:41:24.422Z,24.00
2018-10-06T11:42:28.149Z,23.90
2018-10-06T11:43:32.474Z,24.00
2018-10-06T11:44:36.196Z,24.10
2018-10-06T11:45:41.311Z,24.10
2018-10-06T11:46:46.295Z,24.20
2018-10-06T11:47:52.882Z,24.20
2018-10-06T11:48:56.491Z,24.20
2018-10-06T11:50:00.407Z,24.30
2018-10-06T11:51:04.658Z,24.20
2018-10-06T11:52:08.471Z,24.20
2018-10-06T11:53:12.300Z,24.20
2018-10-06T11:54:15.997Z,24.10
2018-10-06T11:55:19.658Z,24.10
2018-10-06T11:56:23.295Z,24.20
2018-10-06T11:57:26.811Z,24.10
2018-10-06T11:58:30.449Z,24.10
2018-10-06T11:59:34.122Z,24.10
2018-10-06T12:00:37.861Z,24.10
2018-10-06T12:01:41.670Z,24.10
2018-10-06T12:02:45.242Z,24.10
2018-10-06T12:03:48.809Z,24.20
2018-10-06T12:04:52.975Z,24.20
2018-10-06T12:05:58.089Z,24.20
2018-10-06T12:07:01.811Z,24.30
2018-10-06T12:08:05.375Z,24.30
2018-10-06T12:09:09.586Z,24.40
2018-10-06T12:10:14.051Z,24.40
2018-10-06T12:11:18.165Z,24.50
2018-10-06T12:12:21.816Z,24.60
2018-10-06T12:13:25.443Z,24.50
2018-10-06T12:14:29.081Z,24.40
2018-10-06T12:15:32.818Z,24.40
2018-10-06T12:16:36.923Z,24.40
2018-10-06T12:17:40.566Z,24.40
2018-10-06T12:18:44.242Z,24.40
2018-10-06T12:19:47.999Z,24.50
2018-10-06T12:20:51.677Z,24.60
2018-10-06T12:21:55.714Z,24.60
2018-10-06T12:22:59.628Z,24.60
2018-10-06T12:24:07.462Z,24.60
2018-10-06T12:25:12.468Z,24.50
2018-10-06T12:26:16.041Z,24.50
2018-10-06T12:27:20.590Z,24.50
2018-10-06T12:28:24.432Z,24.50
2018-10-06T12:29:28.108Z,24.50
2018-10-06T12:30:32.116Z,24.50
2018-10-06T12:31:35.901Z,24.40
2018-10-06T12:32:39.685Z,24.40
2018-10-06T12:33:44.360Z,24.40
2018-10-06T12:34:48.305Z,24.40
2018-10-06T12:35:53.013Z,24.40
2018-10-06T12:36:56.815Z,24.40
2018-10-06T12:38:00.498Z,24.40
2018-10-06T12:39:05.408Z,24.50
2018-10-06T12:40:09.028Z,24.50
2018-10-06T12:41:13.866Z,24.40
2018-10-06T12:42:19.348Z,24.40
2018-10-06T12:43:25.632Z,24.40
2018-10-06T12:44:29.279Z,24.30
2018-10-06T12:45:33.208Z,24.30
2018-10-06T12:46:36.858Z,24.30
2018-10-06T12:47:40.713Z,24.40
2018-10-06T12:48:44.449Z,24.40
2018-10-06T12:49:48.089Z,24.50
2018-10-06T12:50:51.823Z,24.50
2018-10-06T12:51:56.356Z,24.50
2018-10-06T12:52:59.924Z,24.50
2018-10-06T12:54:04.455Z,24.50
2018-10-06T12:55:08.174Z,24.50
2018-10-06T12:56:12.405Z,24.50
2018-10-06T12:57:16.024Z,24.50
2018-10-06T12:58:19.758Z,24.40
2018-10-06T12:59:23.494Z,24.50
2018-10-06T13:00:27.096Z,24.50
2018-10-06T13:01:31.076Z,24.40
2018-10-06T13:02:35.125Z,24.40
2018-10-06T13:03:38.959Z,24.40
2018-10-06T13:04:43.066Z,24.40
2018-10-06T13:05:47.839Z,24.40
2018-10-06T13:06:51.726Z,24.50
2018-10-06T13:07:55.700Z,24.40
2018-10-06T13:08:59.514Z,24.50
2018-10-06T13:10:03.995Z,24.50
2018-10-06T13:11:07.650Z,24.40
2018-10-06T13:12:11.607Z,24.30
2018-10-06T13:13:15.107Z,24.30
2018-10-06T13:14:18.585Z,24.30
2018-10-06T13:15:22.218Z,24.30
2018-10-06T13:16:25.912Z,24.30
2018-10-06T13:17:29.547Z,24.20
2018-10-06T13:18:33.213Z,24.30
2018-10-06T13:19:37.560Z,24.30
2018-10-06T13:20:41.164Z,24.20
2018-10-06T13:21:45.233Z,24.20
2018-10-06T13:22:49.404Z,24.20
2018-10-06T13:23:53.103Z,24.20
2018-10-06T13:24:56.723Z,24.20
2018-10-06T13:26:00.284Z,24.30
2018-10-06T13:27:03.942Z,24.30
2018-10-06T13:28:08.400Z,24.30
2018-10-06T13:29:12.216Z,24.30
2018-10-06T13:30:15.903Z,24.30
2018-10-06T13:31:19.794Z,24.40
2018-10-06T13:32:23.956Z,24.40
2018-10-06T13:33:28.300Z,24.40
2018-10-06T13:34:31.943Z,24.40
2018-10-06T13:35:35.634Z,24.40
2018-10-06T13:36:40.201Z,24.40
2018-10-06T13:37:43.899Z,24.50
2018-10-06T13:38:48.096Z,24.40
2018-10-06T13:39:51.837Z,24.40
2018-10-06T13:40:55.478Z,24.40
2018-10-06T13:41:59.492Z,24.40
2018-10-06T13:43:04.557Z,24.40
2018-10-06T13:44:08.423Z,24.30
2018-10-06T13:45:12.713Z,24.30
2018-10-06T13:46:17.174Z,24.30
2018-10-06T13:47:21.120Z,24.30
2018-10-06T13:48:24.684Z,24.40
2018-10-06T13:49:29.066Z,24.30
2018-10-06T13:50:32.812Z,24.30
2018-10-06T13:51:36.565Z,24.20
2018-10-06T13:52:40.882Z,24.20
2018-10-06T13:53:44.562Z,24.10
2018-10-06T13:54:49.086Z,24.10
2018-10-06T13:55:52.763Z,24.10
2018-10-06T13:56:56.422Z,24.10